WetterOnline ( https://www.wetteronline.de )

Wetter aktuell Srnojedy

Aktuelles Wetter: Pardubice (230m)

6-stündlich | Neueste Meldungen
Ortszeit Temperatur Wetter
So, 23.02. 13:00 8.6° C leichter Regen
So, 23.02. 7:00 9.7° C bewölkt
So, 23.02. 1:00 10.7° C bedeckt
Sa, 22.02. 19:00 11.7° C leichter Regen
Sa, 22.02. 13:00 12.1° C leicht bewölkt
Sa, 22.02. 7:00 3.4° C leicht bewölkt
Sa, 22.02. 1:00 2.6° C leicht bewölkt
Fr, 21.02. 19:00 3.8° C leicht bewölkt
Ortszeit Temperatur Wetter
So, 23.02. 18:30 13° C leichter Regen
So, 23.02. 18:00 12.5° C leichter Regen
So, 23.02. 17:30 12° C leichter Regen
So, 23.02. 17:00 12.0° C leichter Regen
So, 23.02. 16:30 12° C leichter Regen
So, 23.02. 16:00 11.7° C leichter Regen
So, 23.02. 15:39 11° C leichter Regen
So, 23.02. 15:30 11° C leichter Regen
So, 23.02. 15:00 9.7° C leichter Regen
Ortszeit Relative Feuchte Sichtweite
So, 23.02. 13:00 82% 15 km
So, 23.02. 7:00 68% 20 km
So, 23.02. 1:00 53% 15 km
Sa, 22.02. 19:00 39% 15 km
Sa, 22.02. 13:00 40% 20 km
Sa, 22.02. 7:00 67% 20 km
Sa, 22.02. 1:00 73% 20 km
Fr, 21.02. 19:00 72% 20 km
Ortszeit Relative Feuchte Sichtweite
So, 23.02. 18:30 72% >10 km
So, 23.02. 18:00 75% 20 km
So, 23.02. 17:30 77% >10 km
So, 23.02. 17:00 75% 15 km
So, 23.02. 16:30 71% >10 km
So, 23.02. 16:00 74% 20 km
So, 23.02. 15:39 82% >10 km
So, 23.02. 15:30 76% >10 km
So, 23.02. 15:00 83% 20 km
Ortszeit Niederschlagsmenge Niederschlagsart
So, 23.02. 13:00 1 l/m2 in 6 Std. Regen
So, 23.02. 7:00 0.1 l/m2 in 12 Std. -
So, 23.02. 1:00 0.1 l/m2 in 6 Std. Regen
Sa, 22.02. 19:00 0.1 l/m2 in 12 Std. Regen
Sa, 22.02. 13:00 0.0 l/m2 in 6 Std. -
Sa, 22.02. 7:00 0.0 l/m2 in 12 Std. -
Sa, 22.02. 1:00 0.0 l/m2 in 6 Std. -
Fr, 21.02. 19:00 0.1 l/m2 in 12 Std. -
Ortszeit Niederschlagsmenge Niederschlagsart
So, 23.02. 18:30 keine Meldung -
So, 23.02. 18:00 0.2 l/m2 in 1 Std. Regen
So, 23.02. 17:30 keine Meldung -
So, 23.02. 17:00 0.2 l/m2 in 1 Std. Regen
So, 23.02. 16:30 keine Meldung -
So, 23.02. 16:00 0.0 l/m2 in 1 Std. Regen
So, 23.02. 15:39 keine Meldung -
So, 23.02. 15:30 keine Meldung -
So, 23.02. 15:00 0.5 l/m2 in 1 Std. Regen
Ortszeit Stärke Spitze Richtung
km/h Bft. km/h Grad Sektor
So, 23.02. 13:00 14 3 54 250° W
So, 23.02. 7:00 36 5 50 260° W
So, 23.02. 1:00 32 5 50 250° W
Sa, 22.02. 19:00 22 4 40 250° W
Sa, 22.02. 13:00 25 4 - 240° SW
Sa, 22.02. 7:00 14 3 - 220° SW
Sa, 22.02. 1:00 11 2 - 230° SW
Fr, 21.02. 19:00 14 3 50 270° W
Ortszeit Stärke Spitze Richtung
km/h Bft. km/h Grad Sektor
So, 23.02. 18:30 39 6 - 270° W
So, 23.02. 18:00 40 6 61 270° W
So, 23.02. 17:30 35 5 - 260° W
So, 23.02. 17:00 40 6 54 260° W
So, 23.02. 16:30 35 5 - 260° W
So, 23.02. 16:00 36 5 54 260° W
So, 23.02. 15:39 33 5 54 260° W
So, 23.02. 15:30 31 5 52 260° W
So, 23.02. 15:00 18 3 - 240° SW
Ortszeit Untergrenze Bedeckung Gattung
total tief tief mittel hoch
So, 23.02. 13:00 1080 m 8/8 5/8 Sc Ns -
So, 23.02. 7:00 1200 m 7/8 7/8 Sc - -
So, 23.02. 1:00 1800 m 8/8 5/8 Sc Ns -
Sa, 22.02. 19:00 1500 m 8/8 5/8 Sc Ns -
Sa, 22.02. 13:00 4500 m 6/8 1/8 - Ac Ci
Sa, 22.02. 7:00 2100 m 3/8 3/8 - Ac -
Sa, 22.02. 1:00 2400 m 4/8 4/8 - Ac -
Fr, 21.02. 19:00 2100 m 4/8 4/8 - Ac -
Ortszeit Bedeckungsgrad in Achtel und Wolkenuntergrenze
So, 23.02. 18:30 5-7(1200m) 8(1500m)
So, 23.02. 18:00 5(1200m) 8(1470m)
So, 23.02. 17:30 5-7(1020m) 8(1320m)
So, 23.02. 17:00 4(1020m) 8(1200m)
So, 23.02. 16:30 5-7(1110m) 8(1290m)
So, 23.02. 16:00 3(1110m) 8(1260m)
So, 23.02. 15:39 5-7(1050m) 8(1260m)
So, 23.02. 15:30 8(990m)
So, 23.02. 15:00 8(900m)
Ortszeit Luftdruck NN (hPa) Tendenz (hPa in 3 Std.)
So, 23.02. 13:00 1012 - 5,1
So, 23.02. 7:00 1019 - 0,9
So, 23.02. 1:00 1019 - 0,6
Sa, 22.02. 19:00 1020 - 0,5
Sa, 22.02. 13:00 1023 - 2,2
Sa, 22.02. 7:00 1027 - 0,6
Sa, 22.02. 1:00 1029 - 0,1
Fr, 21.02. 19:00 1029 + 1,9
Ortszeit Luftdruck NN (hPa) Tendenz (hPa in 3 Std.)
So, 23.02. 18:30 1005 keine Meldung
So, 23.02. 18:00 1006 - 2,1
So, 23.02. 17:30 1005 keine Meldung
So, 23.02. 17:00 1006 - 4,0
So, 23.02. 16:30 1005 keine Meldung
So, 23.02. 16:00 1006 - 5,5
So, 23.02. 15:39 1006 keine Meldung
So, 23.02. 15:30 1007 keine Meldung
So, 23.02. 15:00 1008 - 6,3
Ortszeit Schneehöhe (cm)
So, 23.02. 13:00 -
So, 23.02. 7:00 0
So, 23.02. 1:00 -
Sa, 22.02. 19:00 -
Sa, 22.02. 13:00 -
Sa, 22.02. 7:00 0
Sa, 22.02. 1:00 -
Fr, 21.02. 19:00 -
Ortszeit Schneehöhe (cm)
So, 23.02. 18:30 -
So, 23.02. 18:00 -
So, 23.02. 17:30 -
So, 23.02. 17:00 -
So, 23.02. 16:30 -
So, 23.02. 16:00 -
So, 23.02. 15:39 -
So, 23.02. 15:30 -
So, 23.02. 15:00 -
Link zu dieser Seite / Seite empfehlen

Das Wetter in ...